Time;durP1;ratioP1;P1;durP2;ratioP2;P2;SDS_P1;SDS_P2;PMS_P1;PMS_P2;Temp;Humidity;BMP_temperature;BMP_pressure;BME280_temperature;BME280_humidity;BME280_pressure;Samples;Min_cycle;Max_cycle;Signal;HPM_P1;HPM_P2
2022/09/11 00:00:42;;;;;;;2.60;1.30;;;14.50;99.90;;;;;;4993838;28;20171;-73
2022/09/11 00:03:08;;;;;;;2.20;1.60;;;14.60;99.90;;;;;;4987023;28;20942;-73
2022/09/11 00:05:42;;;;;;;6.43;1.27;;;14.60;99.90;;;;;;4983613;28;20439;-73
2022/09/11 00:08:09;;;;;;;4.57;1.30;;;14.60;99.90;;;;;;4974203;28;20416;-73
2022/09/11 00:10:41;;;;;;;1.27;1.17;;;14.60;99.90;;;;;;4980052;28;20796;-73
2022/09/11 00:13:10;;;;;;;1.63;1.53;;;14.60;99.90;;;;;;4993669;28;20468;-74
2022/09/11 00:15:38;;;;;;;2.20;1.20;;;14.60;99.90;;;;;;4993495;28;20420;-73
2022/09/11 00:18:04;;;;;;;4.90;1.67;;;14.60;99.90;;;;;;4986759;28;20493;-74
2022/09/11 00:20:32;;;;;;;2.77;1.30;;;14.60;99.90;;;;;;4991263;28;20462;-74
2022/09/11 00:23:00;;;;;;;2.20;1.43;;;14.70;99.90;;;;;;4993485;28;20973;-74
2022/09/11 00:25:26;;;;;;;1.87;1.60;;;14.60;99.90;;;;;;4992923;28;20974;-73
2022/09/11 00:27:52;;;;;;;1.57;1.23;;;14.70;99.90;;;;;;4993282;28;20460;-73
2022/09/11 00:30:17;;;;;;;2.03;1.20;;;14.70;99.90;;;;;;4992947;28;20931;-73
2022/09/11 00:32:43;;;;;;;1.47;1.20;;;14.70;99.90;;;;;;4984525;28;20228;-73
2022/09/11 00:35:08;;;;;;;2.03;1.33;;;14.80;99.90;;;;;;4993211;28;20199;-74
2022/09/11 00:37:34;;;;;;;1.70;1.60;;;14.70;99.90;;;;;;4989329;28;20695;-73
2022/09/11 00:39:59;;;;;;;2.20;1.07;;;14.80;99.90;;;;;;4993110;28;20179;-73
2022/09/11 00:42:25;;;;;;;2.80;1.27;;;14.70;99.90;;;;;;4989011;28;20262;-73
2022/09/11 00:44:56;;;;;;;2.03;1.07;;;14.80;99.90;;;;;;4992908;28;20260;-73
2022/09/11 00:47:21;;;;;;;2.33;1.40;;;14.70;99.90;;;;;;4986065;28;20194;-73
2022/09/11 00:49:51;;;;;;;1.20;1.10;;;14.60;99.90;;;;;;4992888;28;20415;-73
2022/09/11 00:52:22;;;;;;;5.03;1.10;;;14.60;99.90;;;;;;4985903;28;20199;-73
2022/09/11 00:54:55;;;;;;;1.47;1.37;;;14.60;99.90;;;;;;4992881;28;20430;-75
2022/09/11 00:57:23;;;;;;;1.20;1.10;;;14.60;99.90;;;;;;4990775;28;20438;-73
2022/09/11 00:59:51;;;;;;;3.00;1.40;;;14.60;99.90;;;;;;4992897;28;20426;-74
2022/09/11 02:32:54;;;;;;;2.70;2.60;;;14.70;99.90;;;;;;5053557;22;21004;-73
2022/09/11 02:35:23;;;;;;;3.63;2.50;;;14.80;99.90;;;;;;5014492;28;20413;-73
2022/09/11 02:37:54;;;;;;;3.97;3.00;;;14.80;99.90;;;;;;5011861;28;20433;-73
2022/09/11 02:40:54;;;;;;;2.97;2.73;;;14.80;99.90;;;;;;5013881;28;20417;-73
2022/09/11 02:43:42;;;;;;;4.40;2.50;;;14.90;99.90;;;;;;4993746;28;20418;-73
2022/09/11 02:46:29;;;;;;;5.83;2.60;;;14.90;99.90;;;;;;4995094;28;20823;-73
2022/09/11 02:49:25;;;;;;;5.87;2.40;;;15.00;99.90;;;;;;4991615;28;20856;-73
2022/09/11 02:52:03;;;;;;;3.07;2.87;;;15.00;99.90;;;;;;4993409;28;20531;-73
2022/09/11 02:54:42;;;;;;;3.23;2.00;;;15.00;99.90;;;;;;4975782;28;20415;-73
2022/09/11 02:57:23;;;;;;;4.17;2.73;;;15.10;99.90;;;;;;4976514;28;20445;-73
2022/09/11 03:00:00;;;;;;;3.57;2.50;;;15.10;99.90;;;;;;4980879;28;20860;-73
2022/09/11 03:02:28;;;;;;;2.37;2.20;;;15.10;99.90;;;;;;4977891;28;20447;-73
2022/09/11 03:04:55;;;;;;;6.23;2.83;;;15.10;99.90;;;;;;4994962;28;20452;-73
2022/09/11 03:07:21;;;;;;;3.93;2.40;;;15.10;99.90;;;;;;4993328;28;20792;-75
2022/09/11 03:09:47;;;;;;;4.93;2.43;;;15.10;99.90;;;;;;4991209;28;20475;-73
2022/09/11 03:12:12;;;;;;;4.87;2.27;;;15.10;99.90;;;;;;4994889;28;20466;-73
2022/09/11 03:14:38;;;;;;;2.60;2.50;;;15.10;99.90;;;;;;4989968;28;20604;-74
2022/09/11 03:17:04;;;;;;;3.67;2.60;;;15.10;99.90;;;;;;4994362;28;20186;-73
2022/09/11 03:19:30;;;;;;;3.10;2.57;;;15.10;99.90;;;;;;4990742;28;20528;-74
2022/09/11 03:21:55;;;;;;;3.73;2.87;;;15.10;99.90;;;;;;4994856;28;20608;-73
2022/09/11 03:24:21;;;;;;;10.77;3.33;;;15.10;99.90;;;;;;4992608;28;20559;-73
2022/09/11 03:26:47;;;;;;;4.37;2.90;;;15.10;99.90;;;;;;4994610;28;20183;-74
2022/09/11 03:29:12;;;;;;;5.57;3.17;;;15.00;99.90;;;;;;4993272;28;20237;-75
2022/09/11 03:31:38;;;;;;;4.17;2.63;;;15.10;99.90;;;;;;4989645;28;20223;-73
2022/09/11 03:34:05;;;;;;;3.27;3.07;;;15.10;99.90;;;;;;4991509;28;20261;-73
2022/09/11 03:36:33;;;;;;;5.07;3.80;;;15.10;99.90;;;;;;4993880;28;20594;-73
2022/09/11 03:38:59;;;;;;;8.67;3.47;;;15.10;99.90;;;;;;4993290;28;20438;-76
2022/09/11 03:41:25;;;;;;;4.23;3.83;;;15.10;99.90;;;;;;4992146;28;20476;-73
2022/09/11 03:43:50;;;;;;;3.70;3.40;;;15.10;99.90;;;;;;4992977;28;20608;-75
2022/09/11 03:46:16;;;;;;;3.93;3.63;;;15.10;99.90;;;;;;4992977;28;20488;-73
2022/09/11 03:48:44;;;;;;;5.63;4.23;;;15.10;99.90;;;;;;4992039;28;20179;-74
2022/09/11 03:51:10;;;;;;;4.03;3.00;;;15.00;99.90;;;;;;4993871;28;20199;-73
2022/09/11 03:53:37;;;;;;;4.70;4.30;;;15.00;99.90;;;;;;4992069;28;20425;-73
2022/09/11 03:56:04;;;;;;;5.20;3.90;;;15.00;99.90;;;;;;4991769;28;20190;-73
2022/09/11 03:58:29;;;;;;;4.30;3.90;;;15.10;99.90;;;;;;4993913;28;20931;-74
2022/09/11 04:00:55;;;;;;;5.97;4.50;;;15.10;99.90;;;;;;4990470;28;20537;-74
2022/09/11 04:03:21;;;;;;;5.13;4.63;;;15.10;99.90;;;;;;4982914;28;20196;-75
2022/09/11 04:06:01;;;;;;;8.70;4.97;;;15.10;99.90;;;;;;4974112;28;20187;-73
2022/09/11 04:08:32;;;;;;;6.10;4.73;;;15.10;99.90;;;;;;4974816;28;20221;-73
2022/09/11 04:11:02;;;;;;;6.70;4.60;;;15.10;99.90;;;;;;4989464;28;20473;-73
2022/09/11 04:13:29;;;;;;;4.93;4.47;;;15.20;99.90;;;;;;4993460;28;20421;-75
2022/09/11 04:16:22;;;;;;;6.83;4.33;;;15.10;99.90;;;;;;4993239;28;20414;-73
2022/09/11 04:18:48;;;;;;;7.70;5.03;;;15.10;99.90;;;;;;4990575;28;20456;-72
2022/09/11 04:21:15;;;;;;;6.90;4.50;;;15.20;99.90;;;;;;4991355;28;20518;-73
2022/09/11 04:23:41;;;;;;;7.03;4.70;;;15.10;99.90;;;;;;4989173;28;20470;-73
2022/09/11 04:26:18;;;;;;;6.00;5.50;;;15.10;99.90;;;;;;4991967;28;20438;-73
2022/09/11 04:28:44;;;;;;;9.43;4.90;;;15.10;99.90;;;;;;4993313;28;20282;-73
2022/09/11 04:31:10;;;;;;;7.97;5.20;;;15.10;99.90;;;;;;4991003;28;20563;-73
2022/09/11 04:33:36;;;;;;;6.67;6.07;;;15.20;99.90;;;;;;4983837;28;20274;-73
2022/09/11 04:36:09;;;;;;;6.53;4.97;;;15.10;99.90;;;;;;4992638;28;20510;-74
2022/09/11 04:38:35;;;;;;;8.47;5.80;;;15.10;99.90;;;;;;4973570;28;20180;-73
2022/09/11 04:41:02;;;;;;;5.50;5.00;;;15.10;99.90;;;;;;4973472;28;20438;-73
2022/09/11 04:43:30;;;;;;;5.93;5.37;;;15.10;99.90;;;;;;4973630;28;20187;-74
2022/09/11 04:46:10;;;;;;;9.50;6.00;;;15.10;99.90;;;;;;4974216;28;20441;-73
2022/09/11 04:48:38;;;;;;;7.00;5.30;;;15.20;99.90;;;;;;4982764;28;20434;-73
2022/09/11 04:51:07;;;;;;;10.60;6.10;;;15.20;99.90;;;;;;4992760;28;20435;-74
2022/09/11 04:53:36;;;;;;;6.67;5.90;;;15.20;99.90;;;;;;4989479;28;20439;-74
2022/09/11 04:56:04;;;;;;;9.23;6.13;;;15.20;99.90;;;;;;4992776;28;20410;-74
2022/09/11 04:58:30;;;;;;;8.33;5.70;;;15.20;99.90;;;;;;4992695;28;20856;-74
2022/09/11 05:00:56;;;;;;;6.07;5.40;;;15.20;99.90;;;;;;4989327;28;20496;-73
2022/09/11 05:03:21;;;;;;;6.47;5.77;;;15.20;99.90;;;;;;4990444;28;20211;-73
2022/09/11 05:05:47;;;;;;;10.30;6.73;;;15.20;99.90;;;;;;4992307;28;20176;-73
2022/09/11 05:08:12;;;;;;;6.73;5.20;;;15.20;99.90;;;;;;4989549;28;20177;-73
2022/09/11 05:10:38;;;;;;;9.50;5.10;;;15.20;99.90;;;;;;4992444;28;20275;-74
2022/09/11 05:13:03;;;;;;;7.00;5.77;;;15.30;99.90;;;;;;4992475;28;20176;-73
2022/09/11 05:15:30;;;;;;;7.37;5.70;;;15.30;99.90;;;;;;4988637;28;20187;-73
2022/09/11 05:17:56;;;;;;;6.00;5.50;;;15.30;99.90;;;;;;4988781;28;20194;-73
2022/09/11 05:20:22;;;;;;;6.47;5.87;;;15.20;99.90;;;;;;4990549;28;20501;-73
2022/09/11 05:22:49;;;;;;;8.40;5.63;;;15.30;99.90;;;;;;4992196;28;20537;-73
2022/09/11 05:25:15;;;;;;;6.77;6.17;;;15.30;99.90;;;;;;4985993;28;20248;-73
2022/09/11 05:27:40;;;;;;;6.93;5.60;;;15.30;99.90;;;;;;4992112;28;20442;-74
2022/09/11 05:30:06;;;;;;;6.50;5.70;;;15.30;99.90;;;;;;4992337;28;20595;-73
2022/09/11 05:32:32;;;;;;;12.40;5.80;;;15.30;99.90;;;;;;4986323;28;20276;-73
2022/09/11 05:34:58;;;;;;;8.87;5.80;;;15.30;99.90;;;;;;4980772;28;20530;-73
2022/09/11 05:37:24;;;;;;;6.20;5.60;;;15.30;99.90;;;;;;4972421;28;20552;-73
2022/09/11 05:39:50;;;;;;;6.30;5.90;;;15.40;99.90;;;;;;4973777;28;20472;-73
2022/09/11 05:42:16;;;;;;;7.73;5.23;;;15.40;99.90;;;;;;4973210;28;20946;-73
2022/09/11 05:44:42;;;;;;;7.90;6.43;;;15.40;99.90;;;;;;4973022;28;20459;-73
2022/09/11 05:47:08;;;;;;;6.00;5.50;;;15.40;99.90;;;;;;4972712;28;20175;-74
2022/09/11 05:49:34;;;;;;;6.87;6.23;;;15.40;99.90;;;;;;4986212;28;20934;-72
2022/09/11 05:52:00;;;;;;;9.37;6.90;;;15.50;99.90;;;;;;4992037;28;20434;-71
2022/09/11 05:54:26;;;;;;;7.30;6.60;;;15.50;99.90;;;;;;4990488;28;20174;-70
2022/09/11 05:56:51;;;;;;;9.90;5.43;;;15.50;99.90;;;;;;4991513;28;20790;-72
2022/09/11 05:59:18;;;;;;;7.43;5.67;;;15.60;99.90;;;;;;4992227;28;20242;-71
2022/09/11 06:01:45;;;;;;;6.80;5.80;;;15.60;99.90;;;;;;4992004;28;20237;-72
2022/09/11 06:04:12;;;;;;;6.43;5.80;;;15.60;99.90;;;;;;4987828;28;20652;-71
2022/09/11 06:06:37;;;;;;;10.13;5.93;;;15.60;99.90;;;;;;4988259;28;20446;-71
2022/09/11 06:09:05;;;;;;;14.17;6.80;;;15.60;99.90;;;;;;4992369;28;20407;-72
2022/09/11 06:11:31;;;;;;;7.90;7.07;;;15.60;99.90;;;;;;4991011;28;20458;-72
2022/09/11 06:13:56;;;;;;;10.23;5.40;;;15.70;99.90;;;;;;4992004;28;20428;-72
2022/09/11 06:16:24;;;;;;;7.17;6.33;;;15.70;99.90;;;;;;4990838;28;20228;-71
2022/09/11 06:18:50;;;;;;;8.07;6.67;;;15.70;99.90;;;;;;4988496;28;20614;-72
2022/09/11 06:21:19;;;;;;;6.13;5.50;;;15.70;99.90;;;;;;4990164;28;21020;-72
2022/09/11 06:23:46;;;;;;;7.13;6.27;;;15.80;99.90;;;;;;4991884;28;20446;-71
2022/09/11 06:26:14;;;;;;;13.40;6.37;;;15.80;99.90;;;;;;4991951;28;20790;-71
2022/09/11 06:28:40;;;;;;;8.00;6.27;;;15.90;99.90;;;;;;4991961;28;20415;-71
2022/09/11 06:31:10;;;;;;;9.37;5.97;;;15.90;99.90;;;;;;4988916;28;20552;-71
2022/09/11 06:33:37;;;;;;;6.50;6.00;;;16.00;99.90;;;;;;4984813;28;20423;-71
2022/09/11 06:36:05;;;;;;;7.83;6.80;;;16.00;99.90;;;;;;4991303;28;20418;-72
2022/09/11 06:38:31;;;;;;;7.43;6.83;;;16.00;99.90;;;;;;4988634;28;20426;-72
2022/09/11 06:41:01;;;;;;;7.30;6.70;;;16.00;99.90;;;;;;4991970;28;20452;-71
2022/09/11 06:43:27;;;;;;;8.50;6.73;;;16.10;99.90;;;;;;4988359;28;20438;-71
2022/09/11 06:45:52;;;;;;;9.23;6.77;;;16.10;99.90;;;;;;4991606;28;20426;-68
2022/09/11 06:48:18;;;;;;;9.80;6.83;;;16.20;99.90;;;;;;4985215;28;20520;-71
2022/09/11 06:50:44;;;;;;;8.20;6.70;;;16.20;99.90;;;;;;4994051;28;20640;-71
2022/09/11 06:53:10;;;;;;;7.27;6.57;;;16.30;99.90;;;;;;4995157;28;20179;-71
2022/09/11 06:55:37;;;;;;;11.90;6.90;;;16.30;99.90;;;;;;4995145;28;20428;-72
2022/09/11 06:58:02;;;;;;;9.00;5.87;;;16.30;99.90;;;;;;4985923;28;20445;-72
2022/09/11 07:00:28;;;;;;;7.60;5.77;;;16.40;99.90;;;;;;4995024;28;20437;-74
2022/09/11 07:02:54;;;;;;;7.97;5.37;;;16.40;99.90;;;;;;4993029;28;20602;-74
2022/09/11 07:05:24;;;;;;;9.07;7.30;;;16.40;99.90;;;;;;4995056;28;20242;-73
2022/09/11 07:07:51;;;;;;;7.80;7.07;;;16.40;99.90;;;;;;4994769;28;20285;-74
2022/09/11 07:10:17;;;;;;;13.43;6.83;;;16.50;99.90;;;;;;4995116;28;20782;-73
2022/09/11 07:12:43;;;;;;;6.63;6.13;;;16.50;99.90;;;;;;4991424;28;20454;-74
2022/09/11 07:15:09;;;;;;;6.33;5.67;;;16.50;99.90;;;;;;4993060;28;20422;-72
2022/09/11 07:17:35;;;;;;;6.90;6.30;;;16.50;99.90;;;;;;4991769;28;20175;-74
2022/09/11 07:20:06;;;;;;;7.67;6.97;;;16.50;99.90;;;;;;4991043;28;20939;-74
2022/09/11 07:22:33;;;;;;;13.23;7.30;;;16.50;99.90;;;;;;4994600;28;20500;-74
2022/09/11 07:24:59;;;;;;;7.10;6.50;;;16.50;99.90;;;;;;4994647;28;20461;-74
2022/09/11 07:27:26;;;;;;;6.60;6.10;;;16.50;99.90;;;;;;4982248;28;20443;-74
2022/09/11 07:29:51;;;;;;;8.50;7.60;;;16.60;99.90;;;;;;4993395;28;20469;-72
2022/09/11 07:32:17;;;;;;;8.27;7.23;;;16.60;99.90;;;;;;4988243;28;20467;-74
2022/09/11 07:34:44;;;;;;;9.10;6.57;;;16.70;99.90;;;;;;4990995;28;20278;-72
2022/09/11 07:37:09;;;;;;;6.23;5.73;;;16.70;99.90;;;;;;4994133;28;20172;-74
2022/09/11 07:39:34;;;;;;;6.90;6.20;;;16.90;99.90;;;;;;4994116;28;20415;-74
2022/09/11 07:42:00;;;;;;;11.00;7.40;;;16.90;99.90;;;;;;4991156;28;20212;-71
2022/09/11 07:44:25;;;;;;;8.43;7.53;;;16.90;99.90;;;;;;4991735;28;20221;-71
2022/09/11 07:46:51;;;;;;;6.70;6.10;;;16.90;99.90;;;;;;4993972;28;20543;-71
2022/09/11 07:49:17;;;;;;;7.87;7.20;;;16.90;99.90;;;;;;4991728;28;20538;-71
2022/09/11 07:51:43;;;;;;;7.73;6.67;;;16.90;99.90;;;;;;4993995;28;20514;-72
2022/09/11 07:54:09;;;;;;;7.60;6.77;;;16.90;99.90;;;;;;4993938;28;20180;-71
2022/09/11 07:56:35;;;;;;;7.40;6.70;;;16.90;99.90;;;;;;4990717;28;20249;-71
2022/09/11 07:59:01;;;;;;;7.80;7.10;;;16.90;99.90;;;;;;4992820;28;20430;-71
2022/09/11 08:01:29;;;;;;;9.07;6.73;;;16.90;99.90;;;;;;4991518;28;20238;-73
2022/09/11 08:04:04;;;;;;;8.20;7.40;;;16.90;99.90;;;;;;4991600;28;20466;-74
2022/09/11 08:06:32;;;;;;;7.47;6.63;;;17.00;99.90;;;;;;4990301;28;20848;-74
2022/09/11 08:09:00;;;;;;;7.07;6.30;;;17.00;99.90;;;;;;4993791;28;20782;-73
2022/09/11 08:11:28;;;;;;;7.60;5.80;;;17.20;99.90;;;;;;4993531;28;20505;-73
2022/09/11 08:13:55;;;;;;;6.87;6.30;;;17.40;99.90;;;;;;4991845;28;20520;-74
2022/09/11 08:16:23;;;;;;;7.63;6.97;;;17.60;99.90;;;;;;4991404;28;20955;-71
2022/09/11 08:18:50;;;;;;;6.60;6.10;;;17.80;99.90;;;;;;4982285;28;20974;-73
2022/09/11 08:21:17;;;;;;;6.27;5.70;;;18.20;99.90;;;;;;4993495;28;20430;-72
2022/09/11 08:23:43;;;;;;;8.53;6.60;;;18.50;99.90;;;;;;4993322;28;20506;-72
2022/09/11 08:26:20;;;;;;;6.10;5.60;;;18.80;99.90;;;;;;4991507;28;20439;-72
2022/09/11 08:28:49;;;;;;;7.53;5.90;;;19.20;99.90;;;;;;4991633;28;20481;-72
2022/09/11 08:31:15;;;;;;;5.60;5.10;;;19.60;99.90;;;;;;4989653;28;20465;-71
2022/09/11 08:33:40;;;;;;;8.03;5.43;;;19.70;99.90;;;;;;4988771;28;20433;-72
2022/09/11 08:36:09;;;;;;;5.60;5.07;;;19.60;99.90;;;;;;4992039;28;20935;-71
2022/09/11 08:38:36;;;;;;;6.37;5.87;;;19.30;99.90;;;;;;4988909;28;20202;-71
2022/09/11 08:41:35;;;;;;;6.60;6.07;;;19.00;99.90;;;;;;4993147;28;20505;-71
2022/09/11 08:44:24;;;;;;;7.33;6.73;;;18.60;99.90;;;;;;4973631;28;20482;-71
2022/09/11 08:47:05;;;;;;;10.20;7.40;;;18.40;99.90;;;;;;4973266;28;20778;-72
2022/09/11 08:49:42;;;;;;;11.33;7.20;;;18.40;99.90;;;;;;4985628;28;20846;-71
2022/09/11 08:52:11;;;;;;;7.60;6.90;;;18.60;99.90;;;;;;4990582;28;20455;-72
2022/09/11 08:54:39;;;;;;;6.63;5.80;;;18.80;99.90;;;;;;4992761;28;20841;-72
2022/09/11 08:57:12;;;;;;;8.37;7.00;;;19.20;99.90;;;;;;4991789;28;20423;-72
2022/09/11 08:59:49;;;;;;;6.23;5.67;;;19.80;99.90;;;;;;4982585;28;20803;-72
2022/09/11 09:02:56;;;;;;;8.77;6.50;;;20.50;99.90;;;;;;4992689;28;20429;-72
2022/09/11 09:05:44;;;;;;;7.90;5.77;;;21.50;99.90;;;;;;4973321;28;20463;-71
2022/09/11 09:08:39;;;;;;;6.30;5.70;;;22.60;99.90;;;;;;4973307;28;21019;-72
2022/09/11 09:11:20;;;;;;;6.57;5.60;;;23.10;99.90;;;;;;4989884;28;21009;-72
2022/09/11 09:13:46;;;;;;;4.47;4.07;;;23.90;99.90;;;;;;4989109;28;20509;-73
2022/09/11 09:16:38;;;;;;;5.03;4.63;;;24.20;99.90;;;;;;4992642;28;20438;-71
2022/09/11 09:19:13;;;;;;;4.60;4.20;;;24.30;99.90;;;;;;4986536;28;20182;-72
2022/09/11 09:21:53;;;;;;;4.77;4.20;;;23.50;99.90;;;;;;4973202;28;20714;-72
2022/09/11 09:24:19;;;;;;;4.00;3.80;;;23.40;99.90;;;;;;4981032;28;20472;-72
2022/09/11 09:26:52;;;;;;;4.43;4.13;;;23.50;99.90;;;;;;4992400;28;20419;-72
2022/09/11 09:29:23;;;;;;;7.40;4.13;;;23.30;99.90;;;;;;4991509;28;20438;-72
2022/09/11 09:32:14;;;;;;;6.90;4.20;;;22.90;99.90;;;;;;4975042;28;20832;-72
2022/09/11 09:34:43;;;;;;;4.40;4.07;;;22.20;99.90;;;;;;4984818;28;20419;-71
2022/09/11 09:37:21;;;;;;;5.30;4.90;;;21.70;99.90;;;;;;4992123;28;20410;-72
2022/09/11 09:39:47;;;;;;;4.70;4.30;;;21.30;99.90;;;;;;4990272;28;20522;-72
2022/09/11 09:42:21;;;;;;;6.20;4.60;;;21.10;99.90;;;;;;4989877;28;20465;-72
2022/09/11 09:44:56;;;;;;;5.40;4.87;;;21.20;99.90;;;;;;4989990;28;20457;-72
2022/09/11 09:47:22;;;;;;;4.57;4.20;;;21.40;99.90;;;;;;4992229;28;20417;-72
2022/09/11 09:49:49;;;;;;;4.93;4.53;;;21.50;99.90;;;;;;4990106;28;20442;-71
2022/09/11 09:52:19;;;;;;;8.43;4.90;;;21.20;99.90;;;;;;4992133;28;20879;-72
2022/09/11 09:55:01;;;;;;;6.00;4.90;;;21.20;99.90;;;;;;4988251;28;20446;-73
2022/09/11 09:57:35;;;;;;;5.40;5.00;;;21.10;99.90;;;;;;4972653;28;20849;-71
2022/09/11 10:00:10;;;;;;;5.93;5.43;;;20.90;99.90;;;;;;4973760;28;20544;-72
2022/09/11 10:02:56;;;;;;;5.67;5.23;;;20.90;99.90;;;;;;4973048;28;20439;-72
2022/09/11 10:05:41;;;;;;;5.00;4.70;;;21.20;99.90;;;;;;4972597;28;20485;-72
2022/09/11 10:08:24;;;;;;;6.10;5.53;;;21.40;99.90;;;;;;4972620;28;20912;-72
2022/09/11 10:10:56;;;;;;;5.10;4.80;;;21.40;99.90;;;;;;4985078;28;20430;-72
2022/09/11 10:13:26;;;;;;;5.07;4.77;;;21.40;99.90;;;;;;4992230;28;20405;-72
2022/09/11 10:15:55;;;;;;;5.53;5.07;;;21.40;99.90;;;;;;4992035;28;20410;-72
2022/09/11 10:18:29;;;;;;;5.50;5.10;;;21.30;99.90;;;;;;4985557;28;20438;-72
2022/09/11 10:21:18;;;;;;;6.40;5.80;;;21.10;99.90;;;;;;4985506;28;20450;-72
2022/09/11 10:23:47;;;;;;;6.13;5.70;;;21.10;99.90;;;;;;4973475;28;20970;-72
2022/09/11 10:26:33;;;;;;;5.33;4.93;;;20.80;99.90;;;;;;4976250;28;20435;-71
2022/09/11 10:29:12;;;;;;;7.93;5.63;;;20.80;99.90;;;;;;4995579;28;20414;-72
2022/09/11 10:31:41;;;;;;;6.67;5.70;;;20.70;99.90;;;;;;4991532;28;20477;-72
2022/09/11 10:34:14;;;;;;;6.90;6.30;;;20.60;99.90;;;;;;4993199;28;20459;-72
2022/09/11 10:36:49;;;;;;;6.17;5.77;;;20.60;99.90;;;;;;4995102;28;20431;-72
2022/09/11 10:39:18;;;;;;;5.93;5.37;;;20.80;99.90;;;;;;4995432;28;20926;-72
2022/09/11 10:41:48;;;;;;;5.67;5.27;;;21.00;99.90;;;;;;4994998;28;20923;-72
2022/09/11 10:44:16;;;;;;;8.30;5.60;;;21.30;99.90;;;;;;4995246;28;20454;-72
2022/09/11 10:46:44;;;;;;;5.40;5.07;;;22.10;99.90;;;;;;4986808;28;20467;-72
2022/09/11 10:49:10;;;;;;;5.80;5.17;;;22.50;99.90;;;;;;4990560;28;20926;-72
2022/09/11 10:51:41;;;;;;;5.30;4.80;;;23.30;99.90;;;;;;4995511;28;20429;-73
2022/09/11 10:54:15;;;;;;;6.00;5.50;;;23.60;99.90;;;;;;4991161;28;20191;-72
2022/09/11 10:56:53;;;;;;;6.03;5.07;;;23.60;99.90;;;;;;4994900;28;20495;-72
2022/09/11 10:59:25;;;;;;;7.90;5.20;;;23.80;99.90;;;;;;4995060;28;20476;-72
2022/09/11 11:01:50;;;;;;;5.00;4.50;;;23.60;99.90;;;;;;4991906;28;20460;-72
2022/09/11 11:04:16;;;;;;;5.47;4.97;;;23.30;99.90;;;;;;4989833;28;20544;-72
2022/09/11 11:06:57;;;;;;;6.30;5.70;;;23.10;99.90;;;;;;4994674;28;20171;-72
2022/09/11 11:10:12;;;;;;;5.10;4.60;;;23.10;99.90;;;;;;4992580;28;20187;-72
2022/09/11 11:13:05;;;;;;;6.30;4.87;;;22.90;99.90;;;;;;4991352;28;20914;-72
2022/09/11 11:15:50;;;;;;;4.87;4.53;;;22.90;99.90;;;;;;4993225;28;20414;-73
2022/09/11 11:18:34;;;;;;;6.00;5.30;;;22.80;99.90;;;;;;4982999;28;20500;-72
2022/09/11 11:21:17;;;;;;;4.27;4.00;;;22.80;99.90;;;;;;4993694;28;20522;-72
2022/09/11 11:23:58;;;;;;;5.13;4.73;;;22.60;99.90;;;;;;4991077;28;20470;-72
2022/09/11 11:26:46;;;;;;;6.20;5.43;;;22.90;99.90;;;;;;4994333;28;20485;-72
2022/09/11 11:29:34;;;;;;;5.70;5.30;;;23.80;99.90;;;;;;4994231;28;20437;-73
2022/09/11 11:32:14;;;;;;;5.30;4.80;;;24.10;99.90;;;;;;4989208;28;20477;-72
2022/09/11 11:35:20;;;;;;;11.60;5.30;;;24.60;99.90;;;;;;4990199;28;20477;-72
2022/09/11 11:37:48;;;;;;;4.30;4.00;;;24.70;99.90;;;;;;4994236;28;20429;-72
2022/09/11 11:40:35;;;;;;;4.37;4.07;;;24.80;99.90;;;;;;4992169;28;20431;-73
2022/09/11 11:43:12;;;;;;;4.50;4.20;;;24.90;99.90;;;;;;4994467;28;20847;-72
2022/09/11 11:46:01;;;;;;;4.73;4.33;;;25.00;99.90;;;;;;4993957;28;20548;-72
2022/09/11 11:48:35;;;;;;;6.13;5.10;;;25.10;99.90;;;;;;4988986;28;20434;-72
2022/09/11 11:51:06;;;;;;;5.10;4.30;;;25.40;99.90;;;;;;4980390;28;20486;-72
2022/09/11 11:53:34;;;;;;;5.17;4.33;;;25.40;99.90;;;;;;4974626;28;20486;-72
2022/09/11 11:56:10;;;;;;;5.37;4.33;;;25.60;99.90;;;;;;4975643;28;20947;-72
2022/09/11 11:59:13;;;;;;;5.03;4.60;;;25.70;99.90;;;;;;4974254;28;20975;-72
2022/09/11 12:01:47;;;;;;;5.20;4.80;;;25.20;99.90;;;;;;4974292;28;20442;-72
2022/09/11 12:04:43;;;;;;;4.17;3.87;;;24.20;99.90;;;;;;4984877;28;20565;-72
2022/09/11 12:07:28;;;;;;;5.97;4.93;;;23.90;99.90;;;;;;4984598;28;20526;-73
2022/09/11 12:09:56;;;;;;;4.33;4.03;;;23.80;99.90;;;;;;4974435;28;20931;-72
2022/09/11 12:12:23;;;;;;;4.87;4.47;;;24.00;99.90;;;;;;4974067;28;20817;-72
2022/09/11 12:15:05;;;;;;;5.20;4.80;;;24.10;99.90;;;;;;4974190;28;20419;-72
2022/09/11 12:17:35;;;;;;;4.70;4.40;;;24.00;99.90;;;;;;4983037;28;20450;-71
2022/09/11 12:20:09;;;;;;;4.93;4.47;;;23.80;99.90;;;;;;4974188;28;20428;-71
2022/09/11 12:22:47;;;;;;;9.00;6.10;;;23.50;99.90;;;;;;4987533;28;20472;-73
2022/09/11 12:25:19;;;;;;;5.77;5.20;;;23.20;99.90;;;;;;4993498;28;20462;-71
2022/09/11 12:27:48;;;;;;;6.97;5.47;;;22.90;99.90;;;;;;4990257;28;20937;-72
2022/09/11 12:30:16;;;;;;;5.73;5.30;;;22.90;99.90;;;;;;4993192;28;20417;-72
2022/09/11 12:32:49;;;;;;;6.53;5.93;;;22.90;99.90;;;;;;4986636;28;20525;-72
2022/09/11 12:35:27;;;;;;;6.40;5.80;;;22.70;99.90;;;;;;4991449;28;20426;-72
2022/09/11 12:37:58;;;;;;;6.33;5.27;;;22.90;99.90;;;;;;4992904;28;20402;-71
2022/09/11 12:40:33;;;;;;;5.40;4.90;;;22.90;99.90;;;;;;4993168;28;20425;-72
2022/09/11 12:43:17;;;;;;;4.97;4.53;;;22.80;99.90;;;;;;4984043;28;20561;-72
2022/09/11 12:45:43;;;;;;;5.63;4.93;;;22.80;99.90;;;;;;4992883;28;20993;-72
2022/09/11 12:48:12;;;;;;;5.07;4.63;;;22.80;99.90;;;;;;4985448;28;20443;-72
2022/09/11 12:50:38;;;;;;;5.47;5.00;;;22.60;99.90;;;;;;4992879;28;20203;-71
2022/09/11 12:53:12;;;;;;;4.67;4.37;;;22.70;99.90;;;;;;4992820;28;20469;-72
2022/09/11 12:55:51;;;;;;;5.23;4.73;;;22.70;99.90;;;;;;4991189;28;20431;-72
2022/09/11 12:58:19;;;;;;;4.53;4.20;;;22.70;99.90;;;;;;4981950;28;20434;-72
2022/09/11 13:00:48;;;;;;;5.63;5.23;;;22.70;99.90;;;;;;4992727;28;20958;-72
2022/09/11 13:03:20;;;;;;;5.10;4.57;;;22.70;99.90;;;;;;4988303;28;20435;-72
2022/09/11 13:06:22;;;;;;;6.50;5.00;;;22.50;99.90;;;;;;4992724;28;20819;-72
2022/09/11 13:08:58;;;;;;;4.33;4.10;;;22.50;99.90;;;;;;4970519;28;20470;-72
2022/09/11 13:11:41;;;;;;;5.10;4.70;;;22.40;99.90;;;;;;4980458;28;20462;-70
2022/09/11 13:14:28;;;;;;;4.67;4.27;;;22.40;99.90;;;;;;4989312;28;20434;-72
2022/09/11 13:16:56;;;;;;;5.03;4.40;;;22.50;99.90;;;;;;4992684;28;20403;-70
2022/09/11 13:19:22;;;;;;;5.97;5.33;;;22.50;99.90;;;;;;4990694;28;20853;-73
2022/09/11 13:21:50;;;;;;;7.33;4.30;;;22.40;99.90;;;;;;4992532;28;20430;-72
2022/09/11 13:24:31;;;;;;;6.83;5.90;;;22.40;99.90;;;;;;4992590;28;20541;-72
2022/09/11 13:27:00;;;;;;;4.70;4.30;;;22.40;99.90;;;;;;4988114;28;20445;-72
2022/09/11 13:29:28;;;;;;;6.73;4.73;;;22.40;99.90;;;;;;4990004;28;20442;-72
2022/09/11 13:31:56;;;;;;;7.10;4.73;;;22.40;99.90;;;;;;4990966;28;20469;-72
2022/09/11 13:34:24;;;;;;;6.27;5.00;;;22.40;99.90;;;;;;4985456;28;20870;-72
2022/09/11 13:36:50;;;;;;;5.43;4.90;;;22.30;99.90;;;;;;4992214;28;20418;-72
2022/09/11 13:39:18;;;;;;;5.70;5.20;;;22.20;99.90;;;;;;4992658;28;20489;-72
2022/09/11 13:41:47;;;;;;;5.27;4.87;;;22.20;99.90;;;;;;4989025;28;21072;-72
2022/09/11 13:44:27;;;;;;;5.77;5.37;;;22.10;99.90;;;;;;4990448;28;20462;-72
2022/09/11 13:46:52;;;;;;;5.03;4.63;;;22.00;99.90;;;;;;4991542;28;20422;-72
2022/09/11 13:49:26;;;;;;;5.73;5.33;;;22.10;99.90;;;;;;4989928;28;20911;-72
2022/09/11 13:51:51;;;;;;;5.37;4.97;;;22.00;99.90;;;;;;4989634;28;20214;-72
2022/09/11 13:54:33;;;;;;;6.30;5.67;;;22.10;99.90;;;;;;4992083;28;20422;-71
2022/09/11 13:56:59;;;;;;;6.10;5.47;;;22.00;99.90;;;;;;4991907;28;20548;-71
2022/09/11 13:59:41;;;;;;;4.83;4.57;;;21.90;99.90;;;;;;4994270;28;20469;-71
2022/09/11 14:02:33;;;;;;;5.70;4.80;;;21.80;99.90;;;;;;4992792;28;20214;-72
2022/09/11 14:05:14;;;;;;;6.10;5.60;;;21.80;99.90;;;;;;4993183;28;20497;-72
2022/09/11 14:08:00;;;;;;;4.60;4.20;;;21.90;99.90;;;;;;4994488;28;20430;-71
2022/09/11 14:10:45;;;;;;;5.90;5.40;;;22.10;99.90;;;;;;4993848;28;20772;-71
2022/09/11 14:13:28;;;;;;;4.40;4.20;;;22.20;99.90;;;;;;4993657;28;21050;-72
2022/09/11 14:16:05;;;;;;;11.83;4.50;;;22.20;99.90;;;;;;4993539;28;20443;-71
2022/09/11 14:18:51;;;;;;;5.13;4.80;;;22.20;99.90;;;;;;4992516;28;20438;-72
2022/09/11 14:21:24;;;;;;;5.23;4.90;;;22.20;99.90;;;;;;4991466;28;20873;-72
2022/09/11 14:23:54;;;;;;;6.47;5.87;;;22.20;99.90;;;;;;4995766;28;20473;-71
2022/09/11 14:26:21;;;;;;;7.50;5.20;;;22.10;99.90;;;;;;4991841;28;20435;-72
2022/09/11 14:28:53;;;;;;;5.60;5.13;;;22.00;99.90;;;;;;4995248;28;20486;-73
2022/09/11 14:31:37;;;;;;;5.47;4.97;;;21.80;99.90;;;;;;4993154;28;20450;-71
2022/09/11 14:34:16;;;;;;;6.33;4.80;;;21.80;99.90;;;;;;4991035;28;20421;-72
2022/09/11 14:36:51;;;;;;;6.57;4.90;;;21.90;99.90;;;;;;4993125;28;20995;-72
2022/09/11 14:39:29;;;;;;;5.50;5.10;;;21.90;99.90;;;;;;4993161;28;20444;-72